sensor_id;sensor_type;location;lat;lon;timestamp;P1;durP1;ratioP1;P2;durP2;ratioP2
21663;SDS011;10993;52.510;13.456;2023-12-04T00:02:23;29.70;;;12.50;;
21663;SDS011;10993;52.510;13.456;2023-12-04T00:07:24;32.00;;;13.23;;
21663;SDS011;10993;52.510;13.456;2023-12-04T00:12:24;29.87;;;12.53;;
21663;SDS011;10993;52.510;13.456;2023-12-04T00:17:26;29.67;;;13.13;;
21663;SDS011;10993;52.510;13.456;2023-12-04T00:22:26;27.43;;;12.03;;
21663;SDS011;10993;52.510;13.456;2023-12-04T00:27:28;35.60;;;13.87;;
21663;SDS011;10993;52.510;13.456;2023-12-04T00:32:30;32.87;;;13.17;;
21663;SDS011;10993;52.510;13.456;2023-12-04T00:37:30;34.07;;;14.17;;
21663;SDS011;10993;52.510;13.456;2023-12-04T00:42:30;28.03;;;12.97;;
21663;SDS011;10993;52.510;13.456;2023-12-04T00:47:32;33.30;;;13.20;;
21663;SDS011;10993;52.510;13.456;2023-12-04T00:52:32;33.77;;;13.60;;
21663;SDS011;10993;52.510;13.456;2023-12-04T00:57:33;31.13;;;13.43;;
21663;SDS011;10993;52.510;13.456;2023-12-04T01:02:34;29.97;;;13.63;;
21663;SDS011;10993;52.510;13.456;2023-12-04T01:07:35;34.93;;;14.40;;
21663;SDS011;10993;52.510;13.456;2023-12-04T01:12:35;31.53;;;13.63;;
21663;SDS011;10993;52.510;13.456;2023-12-04T01:17:37;36.07;;;14.10;;
21663;SDS011;10993;52.510;13.456;2023-12-04T01:22:37;34.67;;;13.90;;
21663;SDS011;10993;52.510;13.456;2023-12-04T01:27:38;32.35;;;14.20;;
21663;SDS011;10993;52.510;13.456;2023-12-04T01:32:39;39.00;;;13.67;;
21663;SDS011;10993;52.510;13.456;2023-12-04T01:37:40;29.47;;;13.10;;
21663;SDS011;10993;52.510;13.456;2023-12-04T01:42:42;35.65;;;13.38;;
21663;SDS011;10993;52.510;13.456;2023-12-04T01:47:43;29.77;;;12.20;;
21663;SDS011;10993;52.510;13.456;2023-12-04T01:52:44;37.70;;;14.40;;
21663;SDS011;10993;52.510;13.456;2023-12-04T01:57:44;33.17;;;13.37;;
21663;SDS011;10993;52.510;13.456;2023-12-04T02:02:47;35.93;;;14.13;;
21663;SDS011;10993;52.510;13.456;2023-12-04T02:07:47;33.57;;;13.90;;
21663;SDS011;10993;52.510;13.456;2023-12-04T02:12:48;37.03;;;14.10;;
21663;SDS011;10993;52.510;13.456;2023-12-04T02:17:50;32.13;;;13.13;;
21663;SDS011;10993;52.510;13.456;2023-12-04T02:22:51;36.90;;;14.43;;
21663;SDS011;10993;52.510;13.456;2023-12-04T02:27:52;33.65;;;13.80;;
21663;SDS011;10993;52.510;13.456;2023-12-04T02:32:54;37.47;;;14.90;;
21663;SDS011;10993;52.510;13.456;2023-12-04T02:37:55;34.17;;;14.40;;
21663;SDS011;10993;52.510;13.456;2023-12-04T02:42:59;34.30;;;13.63;;
21663;SDS011;10993;52.510;13.456;2023-12-04T02:47:59;37.00;;;15.13;;
21663;SDS011;10993;52.510;13.456;2023-12-04T02:53:00;45.03;;;15.17;;
21663;SDS011;10993;52.510;13.456;2023-12-04T02:58:01;39.57;;;15.37;;
21663;SDS011;10993;52.510;13.456;2023-12-04T03:03:02;35.87;;;13.37;;
21663;SDS011;10993;52.510;13.456;2023-12-04T03:08:02;37.17;;;14.63;;
21663;SDS011;10993;52.510;13.456;2023-12-04T03:13:04;34.10;;;13.80;;
21663;SDS011;10993;52.510;13.456;2023-12-04T03:18:05;38.30;;;15.47;;
21663;SDS011;10993;52.510;13.456;2023-12-04T03:23:05;38.60;;;13.63;;
21663;SDS011;10993;52.510;13.456;2023-12-04T03:28:07;32.47;;;13.80;;
21663;SDS011;10993;52.510;13.456;2023-12-04T03:33:07;35.90;;;13.73;;
21663;SDS011;10993;52.510;13.456;2023-12-04T03:38:07;32.67;;;14.53;;
21663;SDS011;10993;52.510;13.456;2023-12-04T03:43:09;37.90;;;15.57;;
21663;SDS011;10993;52.510;13.456;2023-12-04T03:48:09;34.67;;;13.43;;
21663;SDS011;10993;52.510;13.456;2023-12-04T03:53:10;36.47;;;14.07;;
21663;SDS011;10993;52.510;13.456;2023-12-04T03:58:11;33.03;;;12.97;;
21663;SDS011;10993;52.510;13.456;2023-12-04T04:03:12;35.93;;;13.47;;
21663;SDS011;10993;52.510;13.456;2023-12-04T04:08:12;36.23;;;13.67;;
21663;SDS011;10993;52.510;13.456;2023-12-04T04:13:14;40.13;;;14.40;;
21663;SDS011;10993;52.510;13.456;2023-12-04T04:18:14;34.23;;;13.73;;
21663;SDS011;10993;52.510;13.456;2023-12-04T04:23:14;37.10;;;14.35;;
21663;SDS011;10993;52.510;13.456;2023-12-04T04:28:16;33.80;;;13.87;;
21663;SDS011;10993;52.510;13.456;2023-12-04T04:33:16;39.03;;;14.33;;
21663;SDS011;10993;52.510;13.456;2023-12-04T04:38:18;33.13;;;14.13;;
21663;SDS011;10993;52.510;13.456;2023-12-04T04:43:20;31.83;;;13.70;;
21663;SDS011;10993;52.510;13.456;2023-12-04T04:48:20;32.37;;;13.70;;
21663;SDS011;10993;52.510;13.456;2023-12-04T04:53:20;32.37;;;13.47;;
21663;SDS011;10993;52.510;13.456;2023-12-04T04:58:22;32.33;;;13.70;;
21663;SDS011;10993;52.510;13.456;2023-12-04T05:03:23;36.03;;;13.93;;
21663;SDS011;10993;52.510;13.456;2023-12-04T05:08:24;31.67;;;13.67;;
21663;SDS011;10993;52.510;13.456;2023-12-04T05:13:25;34.03;;;13.10;;
21663;SDS011;10993;52.510;13.456;2023-12-04T05:18:26;32.83;;;12.53;;
21663;SDS011;10993;52.510;13.456;2023-12-04T05:23:26;30.77;;;12.77;;
21663;SDS011;10993;52.510;13.456;2023-12-04T05:28:28;32.00;;;13.77;;
21663;SDS011;10993;52.510;13.456;2023-12-04T05:33:28;30.53;;;13.43;;
21663;SDS011;10993;52.510;13.456;2023-12-04T05:38:29;31.85;;;12.77;;
21663;SDS011;10993;52.510;13.456;2023-12-04T05:43:30;35.33;;;13.50;;
21663;SDS011;10993;52.510;13.456;2023-12-04T05:48:31;33.27;;;13.00;;
21663;SDS011;10993;52.510;13.456;2023-12-04T05:53:31;30.67;;;12.77;;
21663;SDS011;10993;52.510;13.456;2023-12-04T05:58:33;31.10;;;14.07;;
21663;SDS011;10993;52.510;13.456;2023-12-04T06:03:33;32.93;;;14.53;;
21663;SDS011;10993;52.510;13.456;2023-12-04T06:08:33;31.27;;;13.53;;
21663;SDS011;10993;52.510;13.456;2023-12-04T06:13:35;31.03;;;13.67;;
21663;SDS011;10993;52.510;13.456;2023-12-04T06:18:35;33.57;;;13.13;;
21663;SDS011;10993;52.510;13.456;2023-12-04T06:23:36;34.63;;;14.00;;
21663;SDS011;10993;52.510;13.456;2023-12-04T06:28:38;34.57;;;14.80;;
21663;SDS011;10993;52.510;13.456;2023-12-04T06:33:39;33.43;;;13.87;;
21663;SDS011;10993;52.510;13.456;2023-12-04T06:38:39;33.17;;;13.70;;
21663;SDS011;10993;52.510;13.456;2023-12-04T06:43:42;31.33;;;13.20;;
21663;SDS011;10993;52.510;13.456;2023-12-04T06:48:43;33.20;;;14.90;;
21663;SDS011;10993;52.510;13.456;2023-12-04T06:53:44;35.97;;;13.83;;
21663;SDS011;10993;52.510;13.456;2023-12-04T06:58:46;30.77;;;13.53;;
21663;SDS011;10993;52.510;13.456;2023-12-04T07:03:46;32.40;;;13.70;;
21663;SDS011;10993;52.510;13.456;2023-12-04T07:08:46;33.07;;;13.53;;
21663;SDS011;10993;52.510;13.456;2023-12-04T07:13:48;30.50;;;13.50;;
21663;SDS011;10993;52.510;13.456;2023-12-04T07:18:49;31.00;;;13.77;;
21663;SDS011;10993;52.510;13.456;2023-12-04T07:23:49;35.93;;;12.53;;
21663;SDS011;10993;52.510;13.456;2023-12-04T07:28:51;30.03;;;13.47;;
21663;SDS011;10993;52.510;13.456;2023-12-04T07:33:51;36.97;;;13.47;;
21663;SDS011;10993;52.510;13.456;2023-12-04T07:38:52;37.90;;;14.53;;
21663;SDS011;10993;52.510;13.456;2023-12-04T07:43:55;32.37;;;13.30;;
21663;SDS011;10993;52.510;13.456;2023-12-04T07:48:55;30.87;;;13.00;;
21663;SDS011;10993;52.510;13.456;2023-12-04T07:53:56;29.10;;;13.20;;
21663;SDS011;10993;52.510;13.456;2023-12-04T07:58:58;27.43;;;12.23;;
21663;SDS011;10993;52.510;13.456;2023-12-04T08:03:58;30.33;;;12.83;;
21663;SDS011;10993;52.510;13.456;2023-12-04T08:08:58;28.20;;;12.03;;
21663;SDS011;10993;52.510;13.456;2023-12-04T08:14:00;26.53;;;11.60;;
21663;SDS011;10993;52.510;13.456;2023-12-04T08:19:00;29.50;;;12.23;;
21663;SDS011;10993;52.510;13.456;2023-12-04T08:24:01;29.20;;;12.83;;
21663;SDS011;10993;52.510;13.456;2023-12-04T08:29:03;28.60;;;12.33;;
21663;SDS011;10993;52.510;13.456;2023-12-04T08:34:03;30.90;;;14.20;;
21663;SDS011;10993;52.510;13.456;2023-12-04T08:39:04;28.20;;;12.90;;
21663;SDS011;10993;52.510;13.456;2023-12-04T08:44:06;24.93;;;11.20;;
21663;SDS011;10993;52.510;13.456;2023-12-04T08:49:06;23.93;;;11.80;;
21663;SDS011;10993;52.510;13.456;2023-12-04T08:54:06;34.43;;;11.93;;
21663;SDS011;10993;52.510;13.456;2023-12-04T08:59:09;29.07;;;12.13;;
21663;SDS011;10993;52.510;13.456;2023-12-04T09:04:09;25.57;;;12.03;;
21663;SDS011;10993;52.510;13.456;2023-12-04T09:09:09;26.87;;;11.47;;
21663;SDS011;10993;52.510;13.456;2023-12-04T09:14:12;25.67;;;11.93;;
21663;SDS011;10993;52.510;13.456;2023-12-04T09:19:13;27.90;;;11.67;;
21663;SDS011;10993;52.510;13.456;2023-12-04T09:24:13;25.93;;;11.70;;
21663;SDS011;10993;52.510;13.456;2023-12-04T09:29:15;25.23;;;11.00;;
21663;SDS011;10993;52.510;13.456;2023-12-04T09:34:16;23.73;;;11.37;;
21663;SDS011;10993;52.510;13.456;2023-12-04T09:39:19;23.90;;;9.77;;
21663;SDS011;10993;52.510;13.456;2023-12-04T09:44:20;24.17;;;10.83;;
21663;SDS011;10993;52.510;13.456;2023-12-04T09:49:22;31.30;;;10.60;;
21663;SDS011;10993;52.510;13.456;2023-12-04T09:54:23;19.13;;;9.73;;
21663;SDS011;10993;52.510;13.456;2023-12-04T09:59:25;22.00;;;9.93;;
21663;SDS011;10993;52.510;13.456;2023-12-04T10:04:29;21.50;;;9.87;;
21663;SDS011;10993;52.510;13.456;2023-12-04T10:09:30;24.03;;;10.03;;
21663;SDS011;10993;52.510;13.456;2023-12-04T10:14:31;20.77;;;9.70;;
21663;SDS011;10993;52.510;13.456;2023-12-04T10:19:32;18.47;;;9.10;;
21663;SDS011;10993;52.510;13.456;2023-12-04T10:24:33;20.37;;;9.23;;
21663;SDS011;10993;52.510;13.456;2023-12-04T10:29:43;25.53;;;10.27;;
21663;SDS011;10993;52.510;13.456;2023-12-04T10:34:45;23.17;;;10.33;;
21663;SDS011;10993;52.510;13.456;2023-12-04T10:39:46;18.63;;;9.00;;
21663;SDS011;10993;52.510;13.456;2023-12-04T10:44:50;18.97;;;8.63;;
21663;SDS011;10993;52.510;13.456;2023-12-04T10:49:51;19.50;;;8.93;;
21663;SDS011;10993;52.510;13.456;2023-12-04T10:54:51;17.43;;;8.23;;
21663;SDS011;10993;52.510;13.456;2023-12-04T10:59:55;19.50;;;10.13;;
21663;SDS011;10993;52.510;13.456;2023-12-04T11:04:58;22.63;;;9.90;;
21663;SDS011;10993;52.510;13.456;2023-12-04T11:10:04;20.10;;;8.40;;
21663;SDS011;10993;52.510;13.456;2023-12-04T11:15:09;20.07;;;8.60;;
21663;SDS011;10993;52.510;13.456;2023-12-04T11:20:15;15.90;;;7.07;;
21663;SDS011;10993;52.510;13.456;2023-12-04T11:25:18;20.90;;;9.70;;
21663;SDS011;10993;52.510;13.456;2023-12-04T11:30:24;17.53;;;8.13;;
21663;SDS011;10993;52.510;13.456;2023-12-04T11:35:25;16.33;;;8.47;;
21663;SDS011;10993;52.510;13.456;2023-12-04T11:40:26;20.73;;;9.20;;
21663;SDS011;10993;52.510;13.456;2023-12-04T11:45:29;21.00;;;9.20;;
21663;SDS011;10993;52.510;13.456;2023-12-04T11:50:32;18.40;;;8.20;;
21663;SDS011;10993;52.510;13.456;2023-12-04T11:55:33;16.43;;;8.13;;
21663;SDS011;10993;52.510;13.456;2023-12-04T12:00:40;16.77;;;8.20;;
21663;SDS011;10993;52.510;13.456;2023-12-04T12:05:42;16.50;;;7.47;;
21663;SDS011;10993;52.510;13.456;2023-12-04T12:10:42;14.20;;;7.77;;
21663;SDS011;10993;52.510;13.456;2023-12-04T12:15:47;13.53;;;7.37;;
21663;SDS011;10993;52.510;13.456;2023-12-04T12:20:51;14.60;;;7.50;;
21663;SDS011;10993;52.510;13.456;2023-12-04T12:25:51;17.00;;;7.77;;
21663;SDS011;10993;52.510;13.456;2023-12-04T12:30:53;17.53;;;7.93;;
21663;SDS011;10993;52.510;13.456;2023-12-04T12:35:53;14.33;;;6.77;;
21663;SDS011;10993;52.510;13.456;2023-12-04T12:40:54;15.53;;;7.30;;
21663;SDS011;10993;52.510;13.456;2023-12-04T12:45:55;18.40;;;8.97;;
21663;SDS011;10993;52.510;13.456;2023-12-04T12:50:56;18.03;;;7.73;;
21663;SDS011;10993;52.510;13.456;2023-12-04T12:55:57;18.33;;;8.10;;
21663;SDS011;10993;52.510;13.456;2023-12-04T13:01:01;15.33;;;8.30;;
21663;SDS011;10993;52.510;13.456;2023-12-04T13:06:02;20.30;;;9.17;;
21663;SDS011;10993;52.510;13.456;2023-12-04T13:11:02;15.17;;;7.40;;
21663;SDS011;10993;52.510;13.456;2023-12-04T13:16:06;16.17;;;8.53;;
21663;SDS011;10993;52.510;13.456;2023-12-04T13:21:07;16.77;;;7.77;;
21663;SDS011;10993;52.510;13.456;2023-12-04T13:26:10;18.73;;;9.20;;
21663;SDS011;10993;52.510;13.456;2023-12-04T13:31:12;18.77;;;8.10;;
21663;SDS011;10993;52.510;13.456;2023-12-04T13:36:13;14.80;;;7.83;;
21663;SDS011;10993;52.510;13.456;2023-12-04T13:41:13;18.83;;;8.30;;
21663;SDS011;10993;52.510;13.456;2023-12-04T13:46:40;15.93;;;7.47;;
21663;SDS011;10993;52.510;13.456;2023-12-04T13:51:40;19.57;;;9.10;;
21663;SDS011;10993;52.510;13.456;2023-12-04T13:56:41;15.33;;;7.50;;
21663;SDS011;10993;52.510;13.456;2023-12-04T14:02:02;17.87;;;6.70;;
21663;SDS011;10993;52.510;13.456;2023-12-04T14:07:04;17.23;;;8.00;;
21663;SDS011;10993;52.510;13.456;2023-12-04T14:12:06;12.97;;;6.70;;
21663;SDS011;10993;52.510;13.456;2023-12-04T14:17:08;21.93;;;9.60;;
21663;SDS011;10993;52.510;13.456;2023-12-04T14:22:10;21.33;;;8.90;;
21663;SDS011;10993;52.510;13.456;2023-12-04T14:27:10;18.40;;;8.67;;
21663;SDS011;10993;52.510;13.456;2023-12-04T14:32:12;20.53;;;8.27;;
21663;SDS011;10993;52.510;13.456;2023-12-04T14:37:13;16.33;;;8.33;;
21663;SDS011;10993;52.510;13.456;2023-12-04T14:42:13;17.50;;;7.97;;
21663;SDS011;10993;52.510;13.456;2023-12-04T14:47:15;16.80;;;7.57;;
21663;SDS011;10993;52.510;13.456;2023-12-04T14:52:15;18.10;;;8.80;;
21663;SDS011;10993;52.510;13.456;2023-12-04T14:57:16;21.70;;;9.37;;
21663;SDS011;10993;52.510;13.456;2023-12-04T15:02:20;20.03;;;9.13;;
21663;SDS011;10993;52.510;13.456;2023-12-04T15:07:39;20.93;;;9.50;;
21663;SDS011;10993;52.510;13.456;2023-12-04T15:12:39;18.13;;;9.13;;
21663;SDS011;10993;52.510;13.456;2023-12-04T15:18:00;19.97;;;7.37;;
21663;SDS011;10993;52.510;13.456;2023-12-04T15:23:19;17.20;;;8.63;;
21663;SDS011;10993;52.510;13.456;2023-12-04T15:28:20;17.83;;;8.97;;
21663;SDS011;10993;52.510;13.456;2023-12-04T15:33:21;18.77;;;7.90;;
21663;SDS011;10993;52.510;13.456;2023-12-04T15:38:26;17.30;;;8.00;;
21663;SDS011;10993;52.510;13.456;2023-12-04T15:43:26;19.60;;;9.53;;
21663;SDS011;10993;52.510;13.456;2023-12-04T15:48:28;17.00;;;8.63;;
21663;SDS011;10993;52.510;13.456;2023-12-04T15:53:28;19.80;;;9.93;;
21663;SDS011;10993;52.510;13.456;2023-12-04T15:58:28;17.00;;;9.00;;
21663;SDS011;10993;52.510;13.456;2023-12-04T16:03:30;20.67;;;9.90;;
21663;SDS011;10993;52.510;13.456;2023-12-04T16:08:30;20.23;;;9.33;;
21663;SDS011;10993;52.510;13.456;2023-12-04T16:13:31;22.23;;;10.40;;
21663;SDS011;10993;52.510;13.456;2023-12-04T16:18:32;21.97;;;10.07;;
21663;SDS011;10993;52.510;13.456;2023-12-04T16:23:33;17.63;;;8.90;;
21663;SDS011;10993;52.510;13.456;2023-12-04T16:28:33;20.87;;;9.20;;
21663;SDS011;10993;52.510;13.456;2023-12-04T16:33:35;21.53;;;10.23;;
21663;SDS011;10993;52.510;13.456;2023-12-04T16:38:35;22.30;;;11.27;;
21663;SDS011;10993;52.510;13.456;2023-12-04T16:43:36;21.50;;;10.83;;
21663;SDS011;10993;52.510;13.456;2023-12-04T16:48:38;18.27;;;9.07;;
21663;SDS011;10993;52.510;13.456;2023-12-04T16:53:38;17.07;;;8.90;;
21663;SDS011;10993;52.510;13.456;2023-12-04T16:58:39;19.27;;;9.37;;
21663;SDS011;10993;52.510;13.456;2023-12-04T17:03:41;21.03;;;9.20;;
21663;SDS011;10993;52.510;13.456;2023-12-04T17:08:42;22.30;;;10.63;;
21663;SDS011;10993;52.510;13.456;2023-12-04T17:13:42;22.43;;;9.83;;
21663;SDS011;10993;52.510;13.456;2023-12-04T17:18:44;16.17;;;8.17;;
21663;SDS011;10993;52.510;13.456;2023-12-04T17:23:44;22.80;;;10.37;;
21663;SDS011;10993;52.510;13.456;2023-12-04T17:28:46;19.93;;;10.00;;
21663;SDS011;10993;52.510;13.456;2023-12-04T17:33:48;18.30;;;8.93;;
21663;SDS011;10993;52.510;13.456;2023-12-04T17:38:48;27.67;;;11.50;;
21663;SDS011;10993;52.510;13.456;2023-12-04T17:43:48;17.70;;;8.03;;
21663;SDS011;10993;52.510;13.456;2023-12-04T17:48:50;21.83;;;10.53;;
21663;SDS011;10993;52.510;13.456;2023-12-04T17:53:50;17.27;;;8.87;;
21663;SDS011;10993;52.510;13.456;2023-12-04T17:58:51;27.10;;;12.33;;
21663;SDS011;10993;52.510;13.456;2023-12-04T18:03:52;23.60;;;11.00;;
21663;SDS011;10993;52.510;13.456;2023-12-04T18:08:53;15.00;;;7.70;;
21663;SDS011;10993;52.510;13.456;2023-12-04T18:13:53;21.03;;;10.27;;
21663;SDS011;10993;52.510;13.456;2023-12-04T18:18:55;20.20;;;9.40;;
21663;SDS011;10993;52.510;13.456;2023-12-04T18:23:55;18.37;;;8.03;;
21663;SDS011;10993;52.510;13.456;2023-12-04T18:28:56;21.03;;;8.83;;
21663;SDS011;10993;52.510;13.456;2023-12-04T18:33:58;27.90;;;10.67;;
21663;SDS011;10993;52.510;13.456;2023-12-04T18:38:59;22.63;;;11.00;;
21663;SDS011;10993;52.510;13.456;2023-12-04T18:44:02;24.93;;;10.93;;
21663;SDS011;10993;52.510;13.456;2023-12-04T18:49:04;23.27;;;11.33;;
21663;SDS011;10993;52.510;13.456;2023-12-04T18:54:08;23.23;;;10.53;;
21663;SDS011;10993;52.510;13.456;2023-12-04T18:59:08;26.83;;;11.17;;
21663;SDS011;10993;52.510;13.456;2023-12-04T19:04:10;20.10;;;9.97;;
21663;SDS011;10993;52.510;13.456;2023-12-04T19:09:10;24.13;;;11.53;;
21663;SDS011;10993;52.510;13.456;2023-12-04T19:14:10;24.63;;;10.33;;
21663;SDS011;10993;52.510;13.456;2023-12-04T19:19:12;29.53;;;11.73;;
21663;SDS011;10993;52.510;13.456;2023-12-04T19:24:12;27.40;;;11.53;;
21663;SDS011;10993;52.510;13.456;2023-12-04T19:29:13;30.67;;;13.27;;
21663;SDS011;10993;52.510;13.456;2023-12-04T19:34:14;28.97;;;12.30;;
21663;SDS011;10993;52.510;13.456;2023-12-04T19:39:17;34.57;;;13.63;;
21663;SDS011;10993;52.510;13.456;2023-12-04T19:44:17;35.83;;;14.67;;
21663;SDS011;10993;52.510;13.456;2023-12-04T19:49:19;30.50;;;14.20;;
21663;SDS011;10993;52.510;13.456;2023-12-04T19:54:19;28.43;;;13.73;;
21663;SDS011;10993;52.510;13.456;2023-12-04T19:59:21;31.87;;;13.47;;
21663;SDS011;10993;52.510;13.456;2023-12-04T20:04:23;32.30;;;14.53;;
21663;SDS011;10993;52.510;13.456;2023-12-04T20:09:24;31.83;;;13.97;;
21663;SDS011;10993;52.510;13.456;2023-12-04T20:14:24;25.43;;;12.23;;
21663;SDS011;10993;52.510;13.456;2023-12-04T20:19:26;32.93;;;14.00;;
21663;SDS011;10993;52.510;13.456;2023-12-04T20:24:26;31.70;;;14.00;;
21663;SDS011;10993;52.510;13.456;2023-12-04T20:29:27;34.60;;;15.67;;
21663;SDS011;10993;52.510;13.456;2023-12-04T20:34:29;29.80;;;13.33;;
21663;SDS011;10993;52.510;13.456;2023-12-04T20:39:30;40.97;;;16.97;;
21663;SDS011;10993;52.510;13.456;2023-12-04T20:44:30;31.77;;;14.60;;
21663;SDS011;10993;52.510;13.456;2023-12-04T20:49:32;31.43;;;15.70;;
21663;SDS011;10993;52.510;13.456;2023-12-04T20:54:33;34.53;;;14.07;;
21663;SDS011;10993;52.510;13.456;2023-12-04T20:59:33;36.33;;;15.20;;
21663;SDS011;10993;52.510;13.456;2023-12-04T21:04:35;36.67;;;15.93;;
21663;SDS011;10993;52.510;13.456;2023-12-04T21:09:35;32.73;;;15.60;;
21663;SDS011;10993;52.510;13.456;2023-12-04T21:14:37;35.93;;;15.30;;
21663;SDS011;10993;52.510;13.456;2023-12-04T21:19:39;36.43;;;14.80;;
21663;SDS011;10993;52.510;13.456;2023-12-04T21:24:39;39.33;;;16.73;;
21663;SDS011;10993;52.510;13.456;2023-12-04T21:29:40;41.30;;;16.33;;
21663;SDS011;10993;52.510;13.456;2023-12-04T21:34:41;44.53;;;19.00;;
21663;SDS011;10993;52.510;13.456;2023-12-04T21:39:42;37.67;;;16.67;;
21663;SDS011;10993;52.510;13.456;2023-12-04T21:44:42;42.80;;;16.93;;
21663;SDS011;10993;52.510;13.456;2023-12-04T21:49:44;40.08;;;16.08;;
21663;SDS011;10993;52.510;13.456;2023-12-04T21:54:45;40.83;;;16.07;;
21663;SDS011;10993;52.510;13.456;2023-12-04T21:59:45;34.87;;;15.23;;
21663;SDS011;10993;52.510;13.456;2023-12-04T22:04:47;38.57;;;17.93;;
21663;SDS011;10993;52.510;13.456;2023-12-04T22:09:48;34.67;;;15.40;;
21663;SDS011;10993;52.510;13.456;2023-12-04T22:14:48;36.40;;;15.90;;
21663;SDS011;10993;52.510;13.456;2023-12-04T22:19:50;36.80;;;15.77;;
21663;SDS011;10993;52.510;13.456;2023-12-04T22:24:50;41.57;;;18.87;;
21663;SDS011;10993;52.510;13.456;2023-12-04T22:29:50;43.63;;;17.13;;
21663;SDS011;10993;52.510;13.456;2023-12-04T22:34:52;36.77;;;15.53;;
21663;SDS011;10993;52.510;13.456;2023-12-04T22:39:52;37.47;;;16.33;;
21663;SDS011;10993;52.510;13.456;2023-12-04T22:44:53;34.67;;;16.20;;
21663;SDS011;10993;52.510;13.456;2023-12-04T22:49:54;38.50;;;17.00;;
21663;SDS011;10993;52.510;13.456;2023-12-04T22:54:55;34.57;;;15.27;;
21663;SDS011;10993;52.510;13.456;2023-12-04T22:59:56;31.87;;;13.17;;
21663;SDS011;10993;52.510;13.456;2023-12-04T23:04:57;42.60;;;17.07;;
21663;SDS011;10993;52.510;13.456;2023-12-04T23:09:58;40.10;;;17.23;;
21663;SDS011;10993;52.510;13.456;2023-12-04T23:14:58;33.43;;;15.10;;
21663;SDS011;10993;52.510;13.456;2023-12-04T23:20:00;37.03;;;15.03;;
21663;SDS011;10993;52.510;13.456;2023-12-04T23:25:00;45.13;;;18.37;;
21663;SDS011;10993;52.510;13.456;2023-12-04T23:30:01;38.00;;;16.40;;
21663;SDS011;10993;52.510;13.456;2023-12-04T23:35:03;38.70;;;17.00;;
21663;SDS011;10993;52.510;13.456;2023-12-04T23:40:04;38.30;;;15.17;;
21663;SDS011;10993;52.510;13.456;2023-12-04T23:45:06;38.67;;;16.87;;
21663;SDS011;10993;52.510;13.456;2023-12-04T23:50:09;42.47;;;17.47;;
21663;SDS011;10993;52.510;13.456;2023-12-04T23:55:09;38.33;;;15.87;;
